Current Weather Conditions: station NFBF1

sailwx.info

Wind from 070 at 12 knots gusting 14

Air temperature 24.5° C

Last reported at 2015-May-05 00:54 UTC.
Time now 2015-May-05 03:10 UTC

Location: N 25°05' W 081°05'.
View on Google Maps.

See reports from other nearby stations

  
Tides and Currents Weather Stations Pressure Air Temp Water Temp Dewpoint Dewpoint Depression Visibility Wind Speed Wind Dir Waves Ship Positions
date/time (UTC)wind fromknots sea level pressurealtimeterstation pressurevisibilityair tempwater tempwave heightnotes
2015-May-05 00:54 070 12 gusting 14 24.5
2015-May-05 00:48 070 12 gusting 14 24.5
2015-May-04 23:30 090 14 gusting 16 24.9
2015-May-04 23:24 090 15 gusting 18 25.1
2015-May-04 23:18 090 16 gusting 18 25.1
2015-May-04 23:12 100 16 gusting 18 25.0
2015-May-04 23:06 100 16 gusting 18 25.0
2015-May-04 23:00 090 16 gusting 18 25.1
2015-May-04 22:54 100 16 gusting 20 25.1
2015-May-04 22:48 100 17 gusting 20 25.1
2015-May-04 22:42 100 17 gusting 20 25.1
2015-May-04 22:36 100 19 gusting 20 25.1
2015-May-04 22:30 100 18 gusting 20 25.0
2015-May-04 22:24 100 18 gusting 20 25.1
2015-May-04 22:18 100 17 gusting 19 25.1
2015-May-04 22:12 100 17 gusting 19 25.1
2015-May-04 22:06 100 15 gusting 18 25.1
2015-May-04 22:00 100 17 gusting 20 25.1
2015-May-04 21:54 100 16 gusting 18 25.1
2015-May-04 21:48 100 16 gusting 19 25.1
2015-May-04 20:54 100 16 gusting 18 25.2
2015-May-04 20:48 100 17 gusting 20 25.1
2015-May-04 19:54 100 15 gusting 17 25.0
2015-May-04 19:48 100 15 gusting 17 25.1
2015-May-04 19:42 100 16 gusting 19 25.1
2015-May-04 19:36 100 17 gusting 20 25.0
2015-May-04 19:30 090 16 gusting 19 24.9
2015-May-04 19:24 100 16 gusting 20 24.9
2015-May-04 19:18 100 17 gusting 19 24.9
2015-May-04 19:12 100 17 gusting 20 24.9
2015-May-04 19:06 100 17 gusting 20 24.9
2015-May-04 19:00 100 18 gusting 22 24.9
2015-May-04 16:54 100 20 gusting 25 24.9
2015-May-04 16:48 100 20 gusting 25 24.9
2015-May-04 16:42 100 20 gusting 23 24.9
2015-May-04 16:36 100 19 gusting 23 24.9
2015-May-04 16:30 090 19 gusting 22 24.9
2015-May-04 16:24 090 19 gusting 23 25.0
2015-May-04 16:18 090 19 gusting 22 25.0
2015-May-04 16:12 090 18 gusting 20 24.9
2015-May-04 16:06 080 19 gusting 23 24.9
2015-May-04 16:00 080 19 gusting 24 24.8
2015-May-04 15:54 080 20 gusting 22 24.8
2015-May-04 15:48 090 20 gusting 24 20.6
2015-May-04 14:54 090 19 gusting 23 24.6
2015-May-04 14:48 090 20 gusting 25 24.6
2015-May-04 12:54 070 17 gusting 19 23.4
2015-May-04 12:48 070 17 gusting 20 23.3
2015-May-04 10:54 060 18 gusting 23 22.6
2015-May-04 10:48 060 17 gusting 20 22.7
2015-May-04 10:42 060 18 gusting 20 22.6
2015-May-04 10:36 060 19 gusting 22 22.6
2015-May-04 10:30 060 18 gusting 22 22.6
2015-May-04 10:24 060 19 gusting 22 22.6
2015-May-04 10:18 060 19 gusting 23 22.6
2015-May-04 10:12 060 19 gusting 22 22.5
2015-May-04 10:06 060 18 gusting 20 22.4
2015-May-04 10:00 060 16 gusting 20 22.4
2015-May-04 03:54 080 15 gusting 17 24.4
2015-May-04 03:48 080 15 gusting 17 24.3
2015-May-04 02:54 080 16 gusting 18 24.4
2015-May-04 02:48 080 15 gusting 18 24.4
2015-May-04 02:42 080 16 gusting 19 24.5
2015-May-04 02:36 080 16 gusting 19 24.5
2015-May-04 02:30 080 16 gusting 19 24.5
2015-May-04 02:24 080 17 gusting 20 24.6
2015-May-04 02:18 080 17 gusting 20 24.6
2015-May-04 02:12 080 17 gusting 20 24.6
2015-May-04 02:06 080 17 gusting 19 24.6
2015-May-04 02:00 080 16 gusting 18 24.6
2015-May-03 11:54 060 13 gusting 15 22.9
2015-May-03 11:48 060 12 gusting 16 22.9
2015-May-03 08:54 070 13 gusting 15 23.1
2015-May-03 08:48 070 13 gusting 16 23.1
2015-May-03 07:54 070 15 gusting 17 23.2
2015-May-03 07:48 060 16 gusting 18 23.2
2015-May-03 07:42 060 14 gusting 16 23.3
2015-May-03 07:36 070 13 gusting 14 23.3
2015-May-03 07:30 070 13 gusting 15 23.3
2015-May-03 07:24 070 12 gusting 15 23.5
2015-May-03 07:18 070 14 gusting 16 23.5
2015-May-03 07:12 070 14 gusting 18 23.5
2015-May-03 07:06 070 13 gusting 16 23.6
2015-May-03 07:00 070 14 gusting 17 23.6
2015-May-03 05:54 080 14 gusting 15 24.0
2015-May-03 05:48 070 12 gusting 15 24.0